sensor_id;sensor_type;location;lat;lon;timestamp;temperature;humidity
254;DHT22;590;48.772;8.846;2023-04-24T00:00:55;12.50;82.60
254;DHT22;590;48.772;8.846;2023-04-24T00:03:24;12.50;82.50
254;DHT22;590;48.772;8.846;2023-04-24T00:05:52;12.50;82.30
254;DHT22;590;48.772;8.846;2023-04-24T00:08:20;12.50;82.30
254;DHT22;590;48.772;8.846;2023-04-24T00:10:49;12.50;81.80
254;DHT22;590;48.772;8.846;2023-04-24T00:13:20;12.50;81.60
254;DHT22;590;48.772;8.846;2023-04-24T00:15:48;12.50;81.20
254;DHT22;590;48.772;8.846;2023-04-24T00:18:16;12.50;81.50
254;DHT22;590;48.772;8.846;2023-04-24T00:20:44;12.50;81.60
254;DHT22;590;48.772;8.846;2023-04-24T00:23:13;12.50;81.40
254;DHT22;590;48.772;8.846;2023-04-24T00:25:41;12.50;80.80
254;DHT22;590;48.772;8.846;2023-04-24T00:28:09;12.60;81.00
254;DHT22;590;48.772;8.846;2023-04-24T00:30:38;12.60;80.90
254;DHT22;590;48.772;8.846;2023-04-24T00:33:07;12.60;81.10
254;DHT22;590;48.772;8.846;2023-04-24T00:35:35;12.50;80.90
254;DHT22;590;48.772;8.846;2023-04-24T00:38:03;12.50;80.70
254;DHT22;590;48.772;8.846;2023-04-24T00:40:31;12.50;81.10
254;DHT22;590;48.772;8.846;2023-04-24T00:42:59;12.50;80.60
254;DHT22;590;48.772;8.846;2023-04-24T00:45:27;12.50;80.90
254;DHT22;590;48.772;8.846;2023-04-24T00:48:00;12.50;80.90
254;DHT22;590;48.772;8.846;2023-04-24T00:50:28;12.50;81.20
254;DHT22;590;48.772;8.846;2023-04-24T00:52:57;12.50;81.20
254;DHT22;590;48.772;8.846;2023-04-24T00:55:25;12.50;80.80
254;DHT22;590;48.772;8.846;2023-04-24T00:57:53;12.50;80.50
254;DHT22;590;48.772;8.846;2023-04-24T01:00:21;12.50;80.80
254;DHT22;590;48.772;8.846;2023-04-24T01:02:50;12.50;81.00
254;DHT22;590;48.772;8.846;2023-04-24T01:05:21;12.50;81.10
254;DHT22;590;48.772;8.846;2023-04-24T01:07:49;12.50;80.90
254;DHT22;590;48.772;8.846;2023-04-24T01:10:17;12.50;81.70
254;DHT22;590;48.772;8.846;2023-04-24T01:12:47;12.50;81.50
254;DHT22;590;48.772;8.846;2023-04-24T01:15:15;12.50;81.70
254;DHT22;590;48.772;8.846;2023-04-24T01:17:43;12.40;81.60
254;DHT22;590;48.772;8.846;2023-04-24T01:20:12;12.40;81.60
254;DHT22;590;48.772;8.846;2023-04-24T01:22:43;12.40;81.60
254;DHT22;590;48.772;8.846;2023-04-24T01:25:11;12.40;82.40
254;DHT22;590;48.772;8.846;2023-04-24T01:27:39;12.30;82.00
254;DHT22;590;48.772;8.846;2023-04-24T01:30:09;12.30;82.80
254;DHT22;590;48.772;8.846;2023-04-24T01:32:37;12.30;82.80
254;DHT22;590;48.772;8.846;2023-04-24T01:35:06;12.30;82.90
254;DHT22;590;48.772;8.846;2023-04-24T01:37:35;12.30;83.20
254;DHT22;590;48.772;8.846;2023-04-24T01:40:07;12.30;83.10
254;DHT22;590;48.772;8.846;2023-04-24T01:42:35;12.30;83.20
254;DHT22;590;48.772;8.846;2023-04-24T01:45:04;12.20;83.50
254;DHT22;590;48.772;8.846;2023-04-24T01:47:32;12.20;83.80
254;DHT22;590;48.772;8.846;2023-04-24T01:50:01;12.20;84.10
254;DHT22;590;48.772;8.846;2023-04-24T01:52:28;12.30;84.40
254;DHT22;590;48.772;8.846;2023-04-24T01:54:59;12.20;84.40
254;DHT22;590;48.772;8.846;2023-04-24T01:57:29;12.20;84.90
254;DHT22;590;48.772;8.846;2023-04-24T01:59:58;12.20;85.20
254;DHT22;590;48.772;8.846;2023-04-24T02:02:26;12.20;85.20
254;DHT22;590;48.772;8.846;2023-04-24T02:04:55;12.20;85.10
254;DHT22;590;48.772;8.846;2023-04-24T02:07:23;12.20;85.80
254;DHT22;590;48.772;8.846;2023-04-24T02:09:51;12.20;86.50
254;DHT22;590;48.772;8.846;2023-04-24T02:12:19;12.20;86.60
254;DHT22;590;48.772;8.846;2023-04-24T02:14:48;12.20;87.00
254;DHT22;590;48.772;8.846;2023-04-24T02:17:16;12.10;88.10
254;DHT22;590;48.772;8.846;2023-04-24T02:19:45;12.10;89.60
254;DHT22;590;48.772;8.846;2023-04-24T02:22:13;12.20;91.90
254;DHT22;590;48.772;8.846;2023-04-24T02:24:41;12.20;93.70
254;DHT22;590;48.772;8.846;2023-04-24T02:27:09;12.20;95.30
254;DHT22;590;48.772;8.846;2023-04-24T02:29:38;12.10;96.20
254;DHT22;590;48.772;8.846;2023-04-24T02:32:07;12.10;97.70
254;DHT22;590;48.772;8.846;2023-04-24T02:34:38;12.10;98.80
254;DHT22;590;48.772;8.846;2023-04-24T02:37:06;12.10;99.50
254;DHT22;590;48.772;8.846;2023-04-24T02:39:34;12.10;99.90
254;DHT22;590;48.772;8.846;2023-04-24T02:42:02;12.10;99.90
254;DHT22;590;48.772;8.846;2023-04-24T02:44:30;12.00;99.90
254;DHT22;590;48.772;8.846;2023-04-24T02:46:58;12.00;99.90
254;DHT22;590;48.772;8.846;2023-04-24T02:49:27;12.00;99.90
254;DHT22;590;48.772;8.846;2023-04-24T02:51:55;11.90;99.90
254;DHT22;590;48.772;8.846;2023-04-24T02:54:23;11.90;99.90
254;DHT22;590;48.772;8.846;2023-04-24T02:56:51;11.90;99.90
254;DHT22;590;48.772;8.846;2023-04-24T02:59:19;11.90;99.90
254;DHT22;590;48.772;8.846;2023-04-24T03:01:47;11.90;99.90
254;DHT22;590;48.772;8.846;2023-04-24T03:04:15;11.80;99.90
254;DHT22;590;48.772;8.846;2023-04-24T03:06:48;11.80;99.90
254;DHT22;590;48.772;8.846;2023-04-24T03:09:18;11.70;99.90
254;DHT22;590;48.772;8.846;2023-04-24T03:11:46;11.70;99.90
254;DHT22;590;48.772;8.846;2023-04-24T03:14:15;11.70;99.90
254;DHT22;590;48.772;8.846;2023-04-24T03:16:43;11.70;99.90
254;DHT22;590;48.772;8.846;2023-04-24T03:19:11;11.60;99.90
254;DHT22;590;48.772;8.846;2023-04-24T03:21:39;11.60;99.90
254;DHT22;590;48.772;8.846;2023-04-24T03:24:09;11.60;99.90
254;DHT22;590;48.772;8.846;2023-04-24T03:26:36;11.60;99.90
254;DHT22;590;48.772;8.846;2023-04-24T03:29:04;11.50;99.90
254;DHT22;590;48.772;8.846;2023-04-24T03:31:32;11.50;99.90
254;DHT22;590;48.772;8.846;2023-04-24T03:34:00;11.40;99.90
254;DHT22;590;48.772;8.846;2023-04-24T03:36:28;11.40;99.90
254;DHT22;590;48.772;8.846;2023-04-24T03:38:57;11.40;99.90
254;DHT22;590;48.772;8.846;2023-04-24T03:41:26;11.40;99.90
254;DHT22;590;48.772;8.846;2023-04-24T03:43:54;11.40;99.90
254;DHT22;590;48.772;8.846;2023-04-24T03:46:22;11.50;99.90
254;DHT22;590;48.772;8.846;2023-04-24T03:48:50;11.50;99.90
254;DHT22;590;48.772;8.846;2023-04-24T03:51:18;11.50;99.90
254;DHT22;590;48.772;8.846;2023-04-24T03:53:46;11.50;99.90
254;DHT22;590;48.772;8.846;2023-04-24T03:56:14;11.50;99.90
254;DHT22;590;48.772;8.846;2023-04-24T03:58:43;11.60;99.90
254;DHT22;590;48.772;8.846;2023-04-24T04:01:11;11.60;99.90
254;DHT22;590;48.772;8.846;2023-04-24T04:03:39;11.50;99.90
254;DHT22;590;48.772;8.846;2023-04-24T04:06:08;11.40;99.90
254;DHT22;590;48.772;8.846;2023-04-24T04:08:37;11.20;99.90
254;DHT22;590;48.772;8.846;2023-04-24T04:11:05;11.20;99.90
254;DHT22;590;48.772;8.846;2023-04-24T04:13:33;11.10;99.90
254;DHT22;590;48.772;8.846;2023-04-24T04:16:03;11.00;99.90
254;DHT22;590;48.772;8.846;2023-04-24T04:18:31;10.90;99.90
254;DHT22;590;48.772;8.846;2023-04-24T04:20:58;10.90;99.90
254;DHT22;590;48.772;8.846;2023-04-24T04:23:28;10.80;99.90
254;DHT22;590;48.772;8.846;2023-04-24T04:25:56;10.80;99.90
254;DHT22;590;48.772;8.846;2023-04-24T04:28:24;10.80;99.90
254;DHT22;590;48.772;8.846;2023-04-24T04:30:53;10.80;99.90
254;DHT22;590;48.772;8.846;2023-04-24T04:33:23;10.80;99.90
254;DHT22;590;48.772;8.846;2023-04-24T04:35:52;10.70;99.90
254;DHT22;590;48.772;8.846;2023-04-24T04:38:20;10.70;99.90
254;DHT22;590;48.772;8.846;2023-04-24T04:40:48;10.70;99.90
254;DHT22;590;48.772;8.846;2023-04-24T04:43:16;10.70;99.90
254;DHT22;590;48.772;8.846;2023-04-24T04:45:44;10.70;99.90
254;DHT22;590;48.772;8.846;2023-04-24T04:48:12;10.60;99.90
254;DHT22;590;48.772;8.846;2023-04-24T04:50:42;10.60;99.90
254;DHT22;590;48.772;8.846;2023-04-24T04:53:10;10.60;99.90
254;DHT22;590;48.772;8.846;2023-04-24T04:55:38;10.60;99.90
254;DHT22;590;48.772;8.846;2023-04-24T04:58:06;10.60;99.90
254;DHT22;590;48.772;8.846;2023-04-24T05:00:34;10.50;99.90
254;DHT22;590;48.772;8.846;2023-04-24T05:03:04;10.50;99.90
254;DHT22;590;48.772;8.846;2023-04-24T05:05:48;10.50;99.90
254;DHT22;590;48.772;8.846;2023-04-24T05:08:16;10.50;99.90
254;DHT22;590;48.772;8.846;2023-04-24T05:10:52;10.60;99.90
254;DHT22;590;48.772;8.846;2023-04-24T05:13:20;10.60;99.90
254;DHT22;590;48.772;8.846;2023-04-24T05:16:04;10.70;99.90
254;DHT22;590;48.772;8.846;2023-04-24T05:18:32;10.70;99.90
254;DHT22;590;48.772;8.846;2023-04-24T05:21:02;10.80;99.90
254;DHT22;590;48.772;8.846;2023-04-24T05:23:30;10.80;99.90
254;DHT22;590;48.772;8.846;2023-04-24T05:25:58;10.80;99.90
254;DHT22;590;48.772;8.846;2023-04-24T05:28:26;10.80;99.20
254;DHT22;590;48.772;8.846;2023-04-24T05:30:55;10.80;98.20
254;DHT22;590;48.772;8.846;2023-04-24T05:33:23;11.00;98.00
254;DHT22;590;48.772;8.846;2023-04-24T05:35:51;11.10;97.10
254;DHT22;590;48.772;8.846;2023-04-24T05:38:21;11.30;95.70
254;DHT22;590;48.772;8.846;2023-04-24T05:40:48;11.60;95.60
254;DHT22;590;48.772;8.846;2023-04-24T05:43:16;12.10;91.90
254;DHT22;590;48.772;8.846;2023-04-24T05:45:44;12.40;86.50
254;DHT22;590;48.772;8.846;2023-04-24T05:48:12;12.50;82.90
254;DHT22;590;48.772;8.846;2023-04-24T05:50:40;12.50;81.30
254;DHT22;590;48.772;8.846;2023-04-24T05:53:08;12.50;80.90
254;DHT22;590;48.772;8.846;2023-04-24T05:55:38;12.80;82.00
254;DHT22;590;48.772;8.846;2023-04-24T05:58:06;13.30;80.10
254;DHT22;590;48.772;8.846;2023-04-24T06:00:34;13.90;75.70
254;DHT22;590;48.772;8.846;2023-04-24T06:03:02;14.40;68.60
254;DHT22;590;48.772;8.846;2023-04-24T06:05:31;14.90;62.40
254;DHT22;590;48.772;8.846;2023-04-24T06:07:59;15.40;59.70
254;DHT22;590;48.772;8.846;2023-04-24T06:10:27;15.50;55.10
254;DHT22;590;48.772;8.846;2023-04-24T06:12:56;15.60;54.50
254;DHT22;590;48.772;8.846;2023-04-24T06:15:28;16.00;55.80
254;DHT22;590;48.772;8.846;2023-04-24T06:17:57;16.50;50.30
254;DHT22;590;48.772;8.846;2023-04-24T06:20:25;17.00;42.60
254;DHT22;590;48.772;8.846;2023-04-24T06:22:53;17.30;35.40
254;DHT22;590;48.772;8.846;2023-04-24T06:25:24;17.50;32.40
254;DHT22;590;48.772;8.846;2023-04-24T06:27:52;17.60;30.80
254;DHT22;590;48.772;8.846;2023-04-24T06:30:22;18.00;27.50
254;DHT22;590;48.772;8.846;2023-04-24T06:32:50;18.40;22.50
254;DHT22;590;48.772;8.846;2023-04-24T06:35:18;18.90;20.00
254;DHT22;590;48.772;8.846;2023-04-24T06:37:46;19.00;16.10
254;DHT22;590;48.772;8.846;2023-04-24T06:40:14;18.90;16.30
254;DHT22;590;48.772;8.846;2023-04-24T06:42:45;18.80;15.80
254;DHT22;590;48.772;8.846;2023-04-24T06:45:13;18.70;15.70
254;DHT22;590;48.772;8.846;2023-04-24T06:47:42;18.60;14.30
254;DHT22;590;48.772;8.846;2023-04-24T06:50:10;18.20;12.70
254;DHT22;590;48.772;8.846;2023-04-24T06:52:40;17.90;14.60
254;DHT22;590;48.772;8.846;2023-04-24T06:55:08;17.60;15.00
254;DHT22;590;48.772;8.846;2023-04-24T06:57:37;17.40;16.60
254;DHT22;590;48.772;8.846;2023-04-24T07:00:06;17.20;17.70
254;DHT22;590;48.772;8.846;2023-04-24T07:02:36;17.10;20.70
254;DHT22;590;48.772;8.846;2023-04-24T07:05:06;16.90;17.80
254;DHT22;590;48.772;8.846;2023-04-24T07:07:35;17.00;19.10
254;DHT22;590;48.772;8.846;2023-04-24T07:10:05;17.10;18.40
254;DHT22;590;48.772;8.846;2023-04-24T07:12:33;17.20;17.40
254;DHT22;590;48.772;8.846;2023-04-24T07:15:02;17.30;16.40
254;DHT22;590;48.772;8.846;2023-04-24T07:17:31;17.40;15.00
254;DHT22;590;48.772;8.846;2023-04-24T07:19:59;17.30;14.90
254;DHT22;590;48.772;8.846;2023-04-24T07:22:28;17.30;14.10
254;DHT22;590;48.772;8.846;2023-04-24T07:24:56;17.20;13.30
254;DHT22;590;48.772;8.846;2023-04-24T07:27:25;17.10;12.50
254;DHT22;590;48.772;8.846;2023-04-24T07:29:53;16.90;12.70
254;DHT22;590;48.772;8.846;2023-04-24T07:32:21;16.60;13.20
254;DHT22;590;48.772;8.846;2023-04-24T07:34:49;16.40;11.90
254;DHT22;590;48.772;8.846;2023-04-24T07:37:17;16.20;12.40
254;DHT22;590;48.772;8.846;2023-04-24T07:39:46;16.00;13.20
254;DHT22;590;48.772;8.846;2023-04-24T07:42:14;16.00;12.70
254;DHT22;590;48.772;8.846;2023-04-24T07:44:50;16.00;12.50
254;DHT22;590;48.772;8.846;2023-04-24T07:47:18;16.00;12.30
254;DHT22;590;48.772;8.846;2023-04-24T07:49:46;16.30;13.30
254;DHT22;590;48.772;8.846;2023-04-24T07:52:14;16.50;11.80
254;DHT22;590;48.772;8.846;2023-04-24T07:54:43;16.80;10.00
254;DHT22;590;48.772;8.846;2023-04-24T07:57:12;16.90;10.50
254;DHT22;590;48.772;8.846;2023-04-24T07:59:40;16.90;10.30
254;DHT22;590;48.772;8.846;2023-04-24T08:02:09;16.90;9.70
254;DHT22;590;48.772;8.846;2023-04-24T08:04:37;16.90;10.10
254;DHT22;590;48.772;8.846;2023-04-24T08:07:05;16.70;10.20
254;DHT22;590;48.772;8.846;2023-04-24T08:09:34;16.70;10.40
254;DHT22;590;48.772;8.846;2023-04-24T08:12:02;17.00;10.30
254;DHT22;590;48.772;8.846;2023-04-24T08:14:31;17.10;10.10
254;DHT22;590;48.772;8.846;2023-04-24T08:16:59;17.30;8.90
254;DHT22;590;48.772;8.846;2023-04-24T08:19:28;17.40;9.30
254;DHT22;590;48.772;8.846;2023-04-24T08:21:55;17.10;9.20
254;DHT22;590;48.772;8.846;2023-04-24T08:24:23;16.70;10.00
254;DHT22;590;48.772;8.846;2023-04-24T08:26:52;16.10;11.70
254;DHT22;590;48.772;8.846;2023-04-24T08:29:20;15.50;14.80
254;DHT22;590;48.772;8.846;2023-04-24T08:31:50;14.90;19.10
254;DHT22;590;48.772;8.846;2023-04-24T08:34:18;14.60;23.10
254;DHT22;590;48.772;8.846;2023-04-24T08:36:46;14.70;22.80
254;DHT22;590;48.772;8.846;2023-04-24T08:39:14;15.10;23.40
254;DHT22;590;48.772;8.846;2023-04-24T08:41:43;15.50;23.30
254;DHT22;590;48.772;8.846;2023-04-24T08:44:12;16.10;20.50
254;DHT22;590;48.772;8.846;2023-04-24T08:46:43;16.40;17.40
254;DHT22;590;48.772;8.846;2023-04-24T08:49:14;16.40;14.90
254;DHT22;590;48.772;8.846;2023-04-24T08:51:43;16.10;14.20
254;DHT22;590;48.772;8.846;2023-04-24T08:54:13;15.60;15.40
254;DHT22;590;48.772;8.846;2023-04-24T08:56:44;15.00;19.40
254;DHT22;590;48.772;8.846;2023-04-24T08:59:12;14.50;24.50
254;DHT22;590;48.772;8.846;2023-04-24T09:01:41;14.00;25.70
254;DHT22;590;48.772;8.846;2023-04-24T09:04:09;13.70;29.60
254;DHT22;590;48.772;8.846;2023-04-24T09:06:40;13.50;33.90
254;DHT22;590;48.772;8.846;2023-04-24T09:09:10;13.40;35.40
254;DHT22;590;48.772;8.846;2023-04-24T09:11:39;13.50;36.40
254;DHT22;590;48.772;8.846;2023-04-24T09:14:09;13.60;37.00
254;DHT22;590;48.772;8.846;2023-04-24T09:16:37;13.80;35.80
254;DHT22;590;48.772;8.846;2023-04-24T09:19:05;14.10;30.40
254;DHT22;590;48.772;8.846;2023-04-24T09:21:34;14.20;31.30
254;DHT22;590;48.772;8.846;2023-04-24T09:24:07;14.30;30.00
254;DHT22;590;48.772;8.846;2023-04-24T09:26:36;14.40;29.00
254;DHT22;590;48.772;8.846;2023-04-24T09:29:04;14.40;29.00
254;DHT22;590;48.772;8.846;2023-04-24T09:31:32;14.40;25.30
254;DHT22;590;48.772;8.846;2023-04-24T09:34:02;14.40;25.40
254;DHT22;590;48.772;8.846;2023-04-24T09:36:35;14.30;25.60
254;DHT22;590;48.772;8.846;2023-04-24T09:39:07;14.30;26.00
254;DHT22;590;48.772;8.846;2023-04-24T09:41:44;14.30;24.90
254;DHT22;590;48.772;8.846;2023-04-24T09:44:13;14.30;25.20
254;DHT22;590;48.772;8.846;2023-04-24T09:46:42;14.30;24.60
254;DHT22;590;48.772;8.846;2023-04-24T09:49:14;14.20;22.40
254;DHT22;590;48.772;8.846;2023-04-24T09:51:43;14.30;22.10
254;DHT22;590;48.772;8.846;2023-04-24T09:54:16;14.60;24.00
254;DHT22;590;48.772;8.846;2023-04-24T09:56:45;15.00;22.90
254;DHT22;590;48.772;8.846;2023-04-24T09:59:15;15.40;19.20
254;DHT22;590;48.772;8.846;2023-04-24T10:01:43;15.70;15.30
254;DHT22;590;48.772;8.846;2023-04-24T10:04:19;16.00;17.00
254;DHT22;590;48.772;8.846;2023-04-24T10:06:48;16.40;15.50
254;DHT22;590;48.772;8.846;2023-04-24T10:09:19;16.60;11.40
254;DHT22;590;48.772;8.846;2023-04-24T10:11:49;16.70;10.50
254;DHT22;590;48.772;8.846;2023-04-24T10:14:19;16.60;8.60
254;DHT22;590;48.772;8.846;2023-04-24T10:16:48;16.60;8.40
254;DHT22;590;48.772;8.846;2023-04-24T10:19:16;16.50;8.10
254;DHT22;590;48.772;8.846;2023-04-24T10:21:46;16.40;7.90
254;DHT22;590;48.772;8.846;2023-04-24T10:24:15;16.40;7.90
254;DHT22;590;48.772;8.846;2023-04-24T10:26:45;16.30;7.90
254;DHT22;590;48.772;8.846;2023-04-24T10:29:17;16.20;8.60
254;DHT22;590;48.772;8.846;2023-04-24T10:31:45;16.30;9.70
254;DHT22;590;48.772;8.846;2023-04-24T10:34:15;16.30;8.20
254;DHT22;590;48.772;8.846;2023-04-24T10:36:48;16.30;8.40
254;DHT22;590;48.772;8.846;2023-04-24T10:39:18;16.30;7.80
254;DHT22;590;48.772;8.846;2023-04-24T10:41:55;16.20;9.00
254;DHT22;590;48.772;8.846;2023-04-24T10:44:24;15.90;9.80
254;DHT22;590;48.772;8.846;2023-04-24T10:46:54;15.60;10.10
254;DHT22;590;48.772;8.846;2023-04-24T10:49:29;15.30;10.90
254;DHT22;590;48.772;8.846;2023-04-24T10:52:00;15.00;8.90
254;DHT22;590;48.772;8.846;2023-04-24T10:54:36;14.80;9.70
254;DHT22;590;48.772;8.846;2023-04-24T10:57:28;14.70;10.80
254;DHT22;590;48.772;8.846;2023-04-24T11:00:13;14.60;12.20
254;DHT22;590;48.772;8.846;2023-04-24T11:02:42;14.70;12.00
254;DHT22;590;48.772;8.846;2023-04-24T11:05:16;15.10;11.80
254;DHT22;590;48.772;8.846;2023-04-24T11:08:11;15.40;11.50
254;DHT22;590;48.772;8.846;2023-04-24T11:10:41;15.80;11.80
254;DHT22;590;48.772;8.846;2023-04-24T11:13:15;16.20;9.70
254;DHT22;590;48.772;8.846;2023-04-24T11:15:44;16.30;9.10
254;DHT22;590;48.772;8.846;2023-04-24T11:18:14;16.30;8.70
254;DHT22;590;48.772;8.846;2023-04-24T11:20:44;16.10;8.10
254;DHT22;590;48.772;8.846;2023-04-24T11:23:13;15.90;9.10
254;DHT22;590;48.772;8.846;2023-04-24T11:25:41;15.70;11.30
254;DHT22;590;48.772;8.846;2023-04-24T11:28:15;15.40;16.70
254;DHT22;590;48.772;8.846;2023-04-24T11:30:44;15.20;19.20
254;DHT22;590;48.772;8.846;2023-04-24T11:33:12;15.30;20.20
254;DHT22;590;48.772;8.846;2023-04-24T11:35:47;15.50;20.50
254;DHT22;590;48.772;8.846;2023-04-24T11:38:17;15.90;21.60
254;DHT22;590;48.772;8.846;2023-04-24T11:40:51;16.30;17.90
254;DHT22;590;48.772;8.846;2023-04-24T11:43:21;16.70;14.40
254;DHT22;590;48.772;8.846;2023-04-24T11:45:50;16.70;12.20
254;DHT22;590;48.772;8.846;2023-04-24T11:48:19;16.70;9.10
254;DHT22;590;48.772;8.846;2023-04-24T11:50:49;16.60;8.90
254;DHT22;590;48.772;8.846;2023-04-24T11:53:19;16.60;9.40
254;DHT22;590;48.772;8.846;2023-04-24T11:55:47;16.40;9.00
254;DHT22;590;48.772;8.846;2023-04-24T11:58:15;16.30;7.70
254;DHT22;590;48.772;8.846;2023-04-24T12:00:56;16.10;8.50
254;DHT22;590;48.772;8.846;2023-04-24T12:03:24;16.00;8.20
254;DHT22;590;48.772;8.846;2023-04-24T12:05:52;16.00;9.30
254;DHT22;590;48.772;8.846;2023-04-24T12:08:32;16.00;8.60
254;DHT22;590;48.772;8.846;2023-04-24T12:11:02;16.20;8.80
254;DHT22;590;48.772;8.846;2023-04-24T12:13:31;16.20;7.80
254;DHT22;590;48.772;8.846;2023-04-24T12:16:02;16.20;9.20
254;DHT22;590;48.772;8.846;2023-04-24T12:18:31;16.40;9.70
254;DHT22;590;48.772;8.846;2023-04-24T12:21:18;16.60;10.00
254;DHT22;590;48.772;8.846;2023-04-24T12:23:49;16.90;8.40
254;DHT22;590;48.772;8.846;2023-04-24T12:26:17;17.00;8.20
254;DHT22;590;48.772;8.846;2023-04-24T12:28:47;17.00;7.20
254;DHT22;590;48.772;8.846;2023-04-24T12:31:17;16.90;6.80
254;DHT22;590;48.772;8.846;2023-04-24T12:33:48;16.60;7.70
254;DHT22;590;48.772;8.846;2023-04-24T12:36:16;16.30;8.20
254;DHT22;590;48.772;8.846;2023-04-24T12:38:44;15.90;10.40
254;DHT22;590;48.772;8.846;2023-04-24T12:41:14;15.40;13.90
254;DHT22;590;48.772;8.846;2023-04-24T12:43:51;15.10;17.40
254;DHT22;590;48.772;8.846;2023-04-24T12:46:21;15.00;18.00
254;DHT22;590;48.772;8.846;2023-04-24T12:48:49;15.00;18.00
254;DHT22;590;48.772;8.846;2023-04-24T12:51:18;15.10;16.20
254;DHT22;590;48.772;8.846;2023-04-24T12:53:46;15.30;16.40
254;DHT22;590;48.772;8.846;2023-04-24T12:56:14;15.40;15.10
254;DHT22;590;48.772;8.846;2023-04-24T12:58:42;15.50;12.60
254;DHT22;590;48.772;8.846;2023-04-24T13:01:10;15.40;12.70
254;DHT22;590;48.772;8.846;2023-04-24T13:03:39;15.50;13.10
254;DHT22;590;48.772;8.846;2023-04-24T13:06:08;15.60;14.70
254;DHT22;590;48.772;8.846;2023-04-24T13:08:36;15.70;14.50
254;DHT22;590;48.772;8.846;2023-04-24T13:11:04;15.70;12.00
254;DHT22;590;48.772;8.846;2023-04-24T13:13:32;15.70;12.00
254;DHT22;590;48.772;8.846;2023-04-24T13:16:06;15.70;11.60
254;DHT22;590;48.772;8.846;2023-04-24T13:18:34;15.40;14.40
254;DHT22;590;48.772;8.846;2023-04-24T13:21:04;15.10;19.10
254;DHT22;590;48.772;8.846;2023-04-24T13:23:32;14.90;23.30
254;DHT22;590;48.772;8.846;2023-04-24T13:26:01;14.60;31.00
254;DHT22;590;48.772;8.846;2023-04-24T13:28:29;14.40;28.80
254;DHT22;590;48.772;8.846;2023-04-24T13:30:57;14.40;30.30
254;DHT22;590;48.772;8.846;2023-04-24T13:33:25;14.40;31.30
254;DHT22;590;48.772;8.846;2023-04-24T13:35:53;14.60;34.60
254;DHT22;590;48.772;8.846;2023-04-24T13:38:23;14.90;32.00
254;DHT22;590;48.772;8.846;2023-04-24T13:40:51;15.10;32.30
254;DHT22;590;48.772;8.846;2023-04-24T13:43:19;15.10;27.70
254;DHT22;590;48.772;8.846;2023-04-24T13:45:47;15.10;28.30
254;DHT22;590;48.772;8.846;2023-04-24T13:48:15;15.20;28.00
254;DHT22;590;48.772;8.846;2023-04-24T13:50:43;15.10;28.10
254;DHT22;590;48.772;8.846;2023-04-24T13:53:11;15.10;25.10
254;DHT22;590;48.772;8.846;2023-04-24T13:55:40;15.00;25.50
254;DHT22;590;48.772;8.846;2023-04-24T13:58:09;15.00;25.70
254;DHT22;590;48.772;8.846;2023-04-24T14:00:37;15.00;22.60
254;DHT22;590;48.772;8.846;2023-04-24T14:03:05;15.00;23.00
254;DHT22;590;48.772;8.846;2023-04-24T14:05:33;15.10;21.00
254;DHT22;590;48.772;8.846;2023-04-24T14:08:04;15.10;21.50
254;DHT22;590;48.772;8.846;2023-04-24T14:10:33;15.20;19.50
254;DHT22;590;48.772;8.846;2023-04-24T14:13:02;15.10;20.30
254;DHT22;590;48.772;8.846;2023-04-24T14:15:30;15.00;18.80
254;DHT22;590;48.772;8.846;2023-04-24T14:17:58;14.90;18.10
254;DHT22;590;48.772;8.846;2023-04-24T14:20:27;14.90;19.00
254;DHT22;590;48.772;8.846;2023-04-24T14:22:55;14.90;18.00
254;DHT22;590;48.772;8.846;2023-04-24T14:25:25;14.70;17.50
254;DHT22;590;48.772;8.846;2023-04-24T14:27:53;14.70;18.30
254;DHT22;590;48.772;8.846;2023-04-24T14:30:23;14.70;19.00
254;DHT22;590;48.772;8.846;2023-04-24T14:32:51;14.70;19.50
254;DHT22;590;48.772;8.846;2023-04-24T14:35:19;14.70;17.80
254;DHT22;590;48.772;8.846;2023-04-24T14:37:47;14.80;18.70
254;DHT22;590;48.772;8.846;2023-04-24T14:40:16;14.90;18.90
254;DHT22;590;48.772;8.846;2023-04-24T14:43:04;14.90;18.50
254;DHT22;590;48.772;8.846;2023-04-24T14:45:33;14.90;16.70
254;DHT22;590;48.772;8.846;2023-04-24T14:48:01;14.90;16.90
254;DHT22;590;48.772;8.846;2023-04-24T14:50:29;14.80;16.40
254;DHT22;590;48.772;8.846;2023-04-24T14:52:57;14.70;15.80
254;DHT22;590;48.772;8.846;2023-04-24T14:55:25;14.60;17.80
254;DHT22;590;48.772;8.846;2023-04-24T14:57:53;14.40;17.10
254;DHT22;590;48.772;8.846;2023-04-24T15:00:22;14.30;17.20
254;DHT22;590;48.772;8.846;2023-04-24T15:02:52;14.20;17.80
254;DHT22;590;48.772;8.846;2023-04-24T15:05:22;14.00;17.90
254;DHT22;590;48.772;8.846;2023-04-24T15:07:51;13.90;20.40
254;DHT22;590;48.772;8.846;2023-04-24T15:10:19;13.60;22.60
254;DHT22;590;48.772;8.846;2023-04-24T15:12:49;13.50;29.80
254;DHT22;590;48.772;8.846;2023-04-24T15:15:17;13.60;39.60
254;DHT22;590;48.772;8.846;2023-04-24T15:17:45;13.60;37.80
254;DHT22;590;48.772;8.846;2023-04-24T15:20:15;13.70;40.20
254;DHT22;590;48.772;8.846;2023-04-24T15:22:43;13.80;39.50
254;DHT22;590;48.772;8.846;2023-04-24T15:25:11;13.80;39.20
254;DHT22;590;48.772;8.846;2023-04-24T15:27:40;13.80;37.00
254;DHT22;590;48.772;8.846;2023-04-24T15:30:09;13.80;37.20
254;DHT22;590;48.772;8.846;2023-04-24T15:32:38;13.80;35.50
254;DHT22;590;48.772;8.846;2023-04-24T15:35:07;13.90;35.70
254;DHT22;590;48.772;8.846;2023-04-24T15:37:38;14.00;36.60
254;DHT22;590;48.772;8.846;2023-04-24T15:40:07;14.00;37.10
254;DHT22;590;48.772;8.846;2023-04-24T15:42:35;14.10;35.00
254;DHT22;590;48.772;8.846;2023-04-24T15:45:03;14.00;33.70
254;DHT22;590;48.772;8.846;2023-04-24T15:47:32;14.00;32.10
254;DHT22;590;48.772;8.846;2023-04-24T15:50:00;13.90;30.60
254;DHT22;590;48.772;8.846;2023-04-24T15:52:28;13.90;29.40
254;DHT22;590;48.772;8.846;2023-04-24T15:54:58;13.90;28.70
254;DHT22;590;48.772;8.846;2023-04-24T15:57:26;13.80;28.30
254;DHT22;590;48.772;8.846;2023-04-24T15:59:54;13.80;24.90
254;DHT22;590;48.772;8.846;2023-04-24T16:02:22;13.70;24.50
254;DHT22;590;48.772;8.846;2023-04-24T16:04:50;13.60;26.10
254;DHT22;590;48.772;8.846;2023-04-24T16:07:18;13.40;26.20
254;DHT22;590;48.772;8.846;2023-04-24T16:09:46;13.40;27.20
254;DHT22;590;48.772;8.846;2023-04-24T16:12:16;13.40;27.40
254;DHT22;590;48.772;8.846;2023-04-24T16:14:44;13.50;25.30
254;DHT22;590;48.772;8.846;2023-04-24T16:17:12;13.50;25.30
254;DHT22;590;48.772;8.846;2023-04-24T16:19:40;13.50;24.50
254;DHT22;590;48.772;8.846;2023-04-24T16:22:08;13.60;25.10
254;DHT22;590;48.772;8.846;2023-04-24T16:24:36;13.60;23.30
254;DHT22;590;48.772;8.846;2023-04-24T16:27:03;13.60;23.10
254;DHT22;590;48.772;8.846;2023-04-24T16:29:33;13.60;23.40
254;DHT22;590;48.772;8.846;2023-04-24T16:32:01;13.70;21.30
254;DHT22;590;48.772;8.846;2023-04-24T16:34:29;13.80;21.20
254;DHT22;590;48.772;8.846;2023-04-24T16:36:57;13.90;19.90
254;DHT22;590;48.772;8.846;2023-04-24T16:39:25;13.90;18.80
254;DHT22;590;48.772;8.846;2023-04-24T16:41:53;14.00;19.60
254;DHT22;590;48.772;8.846;2023-04-24T16:44:25;13.90;19.10
254;DHT22;590;48.772;8.846;2023-04-24T16:46:54;14.00;17.10
254;DHT22;590;48.772;8.846;2023-04-24T16:49:22;13.90;17.50